createdAt,value
2018-12-15T00:00:01.900Z,89.10
2018-12-15T00:00:39.131Z,88.55
2018-12-15T00:01:15.908Z,89.04
2018-12-15T00:01:53.610Z,88.96
2018-12-15T00:02:30.499Z,89.05
2018-12-15T00:03:07.486Z,89.03
2018-12-15T00:03:44.291Z,88.94
2018-12-15T00:04:22.077Z,88.93
2018-12-15T00:04:58.926Z,88.76
2018-12-15T00:05:35.858Z,87.73
2018-12-15T00:06:12.689Z,87.64
2018-12-15T00:06:49.525Z,88.79
2018-12-15T00:07:26.604Z,88.40
2018-12-15T00:08:03.478Z,88.62
2018-12-15T00:08:40.328Z,87.85
2018-12-15T00:09:17.717Z,89.19
2018-12-15T00:09:54.629Z,88.74
2018-12-15T00:10:31.453Z,88.76
2018-12-15T00:11:08.425Z,87.93
2018-12-15T00:11:45.293Z,88.89
2018-12-15T00:12:22.176Z,88.76
2018-12-15T00:12:58.983Z,87.80
2018-12-15T00:13:35.880Z,87.70
2018-12-15T00:14:13.860Z,87.93
2018-12-15T00:14:50.877Z,88.40
2018-12-15T00:15:27.716Z,88.66
2018-12-15T00:16:04.561Z,88.67
2018-12-15T00:16:41.457Z,87.73
2018-12-15T00:17:18.404Z,88.42
2018-12-15T00:17:55.222Z,88.48
2018-12-15T00:18:31.995Z,87.60
2018-12-15T00:19:08.899Z,88.34
2018-12-15T00:19:45.735Z,87.66
2018-12-15T00:20:22.643Z,88.42
2018-12-15T00:20:59.532Z,88.23
2018-12-15T00:21:36.477Z,88.18
2018-12-15T00:22:13.321Z,88.25
2018-12-15T00:22:50.069Z,88.93
2018-12-15T00:23:26.973Z,87.49
2018-12-15T00:24:03.760Z,88.37
2018-12-15T00:24:40.770Z,87.98
2018-12-15T00:25:17.765Z,87.83
2018-12-15T00:25:54.705Z,88.03
2018-12-15T00:26:31.531Z,88.02
2018-12-15T00:27:08.275Z,88.06
2018-12-15T00:27:45.112Z,87.75
2018-12-15T00:28:21.865Z,88.15
2018-12-15T00:28:58.720Z,88.30
2018-12-15T00:29:35.667Z,87.52
2018-12-15T00:30:12.584Z,87.33
2018-12-15T00:30:49.429Z,88.15
2018-12-15T00:31:26.275Z,87.16
2018-12-15T00:32:03.017Z,87.20
2018-12-15T00:32:39.866Z,86.76
2018-12-15T00:33:16.770Z,87.54
2018-12-15T00:33:53.915Z,86.12
2018-12-15T00:34:30.721Z,86.47
2018-12-15T00:35:07.819Z,86.82
2018-12-15T00:35:44.686Z,86.75
2018-12-15T00:36:21.686Z,85.86
2018-12-15T00:36:58.699Z,85.56
2018-12-15T00:37:35.506Z,85.19
2018-12-15T00:38:12.344Z,85.57
2018-12-15T00:38:49.119Z,86.03
2018-12-15T00:39:25.940Z,85.84
2018-12-15T00:40:02.860Z,85.21
2018-12-15T00:40:39.723Z,84.57
2018-12-15T00:41:16.548Z,85.55
2018-12-15T00:41:53.429Z,85.36
2018-12-15T00:42:36.713Z,84.80
2018-12-15T00:43:13.626Z,84.21
2018-12-15T00:43:50.499Z,84.53
2018-12-15T00:44:27.285Z,84.74
2018-12-15T00:45:04.187Z,84.03
2018-12-15T00:45:40.992Z,84.40
2018-12-15T00:46:17.997Z,83.39
2018-12-15T00:46:54.903Z,83.79
2018-12-15T00:47:31.861Z,83.49
2018-12-15T00:48:08.744Z,84.34
2018-12-15T00:48:45.587Z,83.99
2018-12-15T00:49:22.407Z,82.74
2018-12-15T00:49:59.132Z,83.98
2018-12-15T00:50:35.994Z,83.33
2018-12-15T00:51:12.962Z,82.62
2018-12-15T00:51:49.761Z,82.40
2018-12-15T00:52:26.656Z,81.98
2018-12-15T00:53:03.407Z,82.32
2018-12-15T00:53:40.345Z,81.66
2018-12-15T00:54:17.185Z,82.28
2018-12-15T00:54:54.031Z,81.72
2018-12-15T00:55:30.866Z,82.02
2018-12-15T00:56:07.809Z,81.92
2018-12-15T00:56:44.712Z,81.84
2018-12-15T00:57:21.641Z,80.76
2018-12-15T00:57:58.559Z,81.24
2018-12-15T00:58:35.501Z,80.79
2018-12-15T00:59:12.393Z,81.12
2018-12-15T00:59:49.177Z,81.25
2018-12-15T01:00:26.248Z,80.88
2018-12-15T01:01:03.137Z,80.52
2018-12-15T01:01:39.994Z,79.52
2018-12-15T01:02:16.872Z,79.82
2018-12-15T01:02:53.755Z,79.33
2018-12-15T01:03:30.593Z,79.45
2018-12-15T01:04:07.352Z,79.36
2018-12-15T01:04:44.320Z,78.68
2018-12-15T01:05:21.249Z,79.65
2018-12-15T01:05:58.119Z,78.75
2018-12-15T01:06:34.948Z,78.50
2018-12-15T01:07:11.937Z,78.49
2018-12-15T01:07:48.874Z,77.55
2018-12-15T01:08:25.670Z,77.50
2018-12-15T01:09:02.514Z,78.81
2018-12-15T01:09:39.348Z,77.72
2018-12-15T01:10:16.256Z,77.90
2018-12-15T01:10:53.225Z,77.55
2018-12-15T01:11:30.041Z,77.40
2018-12-15T01:12:06.865Z,77.71
2018-12-15T01:12:43.650Z,76.91
2018-12-15T01:13:20.642Z,77.67
2018-12-15T01:13:57.429Z,77.43
2018-12-15T01:14:34.264Z,77.24
2018-12-15T01:15:11.095Z,77.04
2018-12-15T01:15:47.993Z,76.39
2018-12-15T01:16:25.676Z,76.45
2018-12-15T01:17:02.498Z,75.74
2018-12-15T01:17:39.353Z,75.84
2018-12-15T01:18:16.800Z,75.47
2018-12-15T01:18:53.553Z,75.32
2018-12-15T01:19:30.438Z,75.68
2018-12-15T01:20:07.561Z,74.42
2018-12-15T01:20:44.272Z,74.60
2018-12-15T01:21:21.146Z,75.13
2018-12-15T01:21:58.084Z,74.39
2018-12-15T01:22:34.945Z,74.76
2018-12-15T01:23:11.827Z,74.37
2018-12-15T01:23:48.662Z,74.59
2018-12-15T01:24:25.575Z,75.38
2018-12-15T01:25:02.389Z,74.73
2018-12-15T01:25:39.296Z,74.59
2018-12-15T01:26:16.289Z,74.34
2018-12-15T01:26:53.171Z,74.38
2018-12-15T01:27:29.931Z,75.01
2018-12-15T01:28:06.878Z,75.31
2018-12-15T01:28:44.339Z,74.44
2018-12-15T01:29:21.180Z,74.62
2018-12-15T01:29:57.989Z,75.36
2018-12-15T01:30:34.894Z,74.92
2018-12-15T01:31:11.769Z,74.37
2018-12-15T01:31:48.637Z,74.50
2018-12-15T01:32:25.556Z,73.92
2018-12-15T01:33:02.425Z,73.55
2018-12-15T01:33:39.411Z,73.76
2018-12-15T01:34:16.268Z,73.57
2018-12-15T01:34:53.273Z,73.05
2018-12-15T01:35:30.072Z,73.34
2018-12-15T01:36:06.883Z,72.60
2018-12-15T01:36:43.897Z,72.56
2018-12-15T01:37:20.755Z,72.36
2018-12-15T01:37:57.599Z,72.09
2018-12-15T01:38:34.524Z,72.34
2018-12-15T01:39:12.080Z,72.27
2018-12-15T01:39:48.954Z,72.07
2018-12-15T01:40:26.699Z,72.01
2018-12-15T01:41:03.532Z,71.96
2018-12-15T01:41:40.305Z,71.89
2018-12-15T01:42:17.271Z,72.03
2018-12-15T01:42:54.027Z,71.93
2018-12-15T01:43:31.908Z,71.25
2018-12-15T01:44:08.927Z,70.85
2018-12-15T01:44:45.757Z,71.29
2018-12-15T01:45:22.785Z,71.19
2018-12-15T01:45:59.476Z,71.33
2018-12-15T01:46:36.436Z,71.33
2018-12-15T01:47:13.450Z,71.40
2018-12-15T01:47:50.314Z,71.40
2018-12-15T01:48:27.166Z,71.24
2018-12-15T01:49:03.972Z,71.36
2018-12-15T01:49:40.884Z,71.38
2018-12-15T01:50:17.873Z,71.37
2018-12-15T01:50:54.993Z,71.32
2018-12-15T01:51:31.720Z,70.69
2018-12-15T01:52:08.583Z,70.54
2018-12-15T01:52:45.341Z,70.49
2018-12-15T01:53:22.104Z,70.20
2018-12-15T01:53:58.979Z,70.02
2018-12-15T01:54:37.008Z,69.62
2018-12-15T01:55:13.942Z,69.66
2018-12-15T01:55:50.903Z,69.62
2018-12-15T01:56:28.514Z,69.54
2018-12-15T01:57:05.320Z,69.13
2018-12-15T01:57:42.186Z,69.07
2018-12-15T01:58:18.991Z,69.03
2018-12-15T01:58:55.882Z,69.16
2018-12-15T01:59:33.604Z,68.76
2018-12-15T02:00:11.439Z,68.99
2018-12-15T02:00:49.328Z,69.00
2018-12-15T02:01:26.206Z,68.80
2018-12-15T02:02:03.107Z,69.34
2018-12-15T02:02:39.906Z,69.35
2018-12-15T02:03:17.248Z,68.74
2018-12-15T02:03:54.329Z,68.63
2018-12-15T02:04:31.308Z,68.68
2018-12-15T02:05:08.244Z,68.36
2018-12-15T02:05:45.434Z,68.17
2018-12-15T02:06:22.625Z,68.22
2018-12-15T02:06:59.697Z,68.41
2018-12-15T02:07:36.600Z,68.42
2018-12-15T02:08:13.462Z,68.58
2018-12-15T02:08:50.601Z,68.91
2018-12-15T02:09:30.487Z,68.74
2018-12-15T02:10:08.243Z,68.56
2018-12-15T02:10:44.989Z,68.94
2018-12-15T02:11:22.152Z,68.76
2018-12-15T02:11:58.898Z,68.54
2018-12-15T02:12:36.007Z,67.27
2018-12-15T02:13:12.934Z,67.21
2018-12-15T02:13:49.970Z,66.65
2018-12-15T02:14:26.777Z,66.55
2018-12-15T02:15:03.769Z,66.42
2018-12-15T02:15:40.584Z,67.24
2018-12-15T02:16:17.324Z,67.01
2018-12-15T02:16:54.409Z,67.06
2018-12-15T02:17:33.765Z,66.60
2018-12-15T02:18:10.271Z,67.30
2018-12-15T02:18:47.197Z,66.85
2018-12-15T02:19:24.157Z,66.58
2018-12-15T02:20:01.756Z,66.14
2018-12-15T02:20:38.793Z,65.41
2018-12-15T02:21:15.849Z,65.96
2018-12-15T02:21:53.265Z,65.66
2018-12-15T02:22:30.412Z,64.84
2018-12-15T02:23:07.439Z,65.21
2018-12-15T02:23:44.562Z,65.51
2018-12-15T02:24:21.901Z,65.38
2018-12-15T02:24:59.461Z,64.54
2018-12-15T02:25:36.543Z,64.01
2018-12-15T02:26:13.485Z,64.18
2018-12-15T02:26:50.549Z,63.94
2018-12-15T02:27:27.429Z,64.03
2018-12-15T02:28:04.424Z,64.17
2018-12-15T02:28:41.401Z,63.90
2018-12-15T02:29:18.388Z,63.78
2018-12-15T02:29:55.185Z,64.01
2018-12-15T02:30:31.920Z,63.95
2018-12-15T02:31:08.712Z,63.96
2018-12-15T02:31:45.525Z,63.62
2018-12-15T02:32:22.322Z,63.52
2018-12-15T02:32:59.159Z,63.61
2018-12-15T02:33:35.946Z,63.53
2018-12-15T02:34:12.829Z,63.76
2018-12-15T02:34:49.575Z,63.77
2018-12-15T02:35:26.492Z,63.91
2018-12-15T02:36:03.977Z,63.99
2018-12-15T02:36:40.789Z,63.83
2018-12-15T02:37:17.679Z,63.84
2018-12-15T02:37:54.799Z,62.76
2018-12-15T02:38:31.678Z,62.71
2018-12-15T02:39:10.866Z,62.08
2018-12-15T02:39:48.043Z,62.07
2018-12-15T02:40:24.934Z,62.40
2018-12-15T02:41:01.880Z,61.98
2018-12-15T02:41:38.804Z,61.85
2018-12-15T02:42:16.516Z,62.54
2018-12-15T02:42:53.269Z,62.05
2018-12-15T02:43:30.161Z,62.40
2018-12-15T02:44:07.181Z,62.48
2018-12-15T02:44:44.256Z,62.06
2018-12-15T02:45:21.380Z,62.23
2018-12-15T02:45:58.242Z,62.24
2018-12-15T02:46:35.097Z,62.03
2018-12-15T02:47:12.093Z,61.82
2018-12-15T02:47:48.973Z,61.31
2018-12-15T02:48:25.937Z,61.35
2018-12-15T02:49:02.875Z,61.48
2018-12-15T02:49:39.727Z,61.86
2018-12-15T02:50:16.676Z,61.75
2018-12-15T02:50:53.523Z,61.13
2018-12-15T02:51:30.288Z,61.36
2018-12-15T02:52:07.042Z,61.17
2018-12-15T02:52:43.944Z,61.05
2018-12-15T02:53:20.812Z,61.00
2018-12-15T02:53:57.705Z,60.38
2018-12-15T02:54:34.458Z,59.91
2018-12-15T02:55:11.272Z,59.51
2018-12-15T02:55:48.111Z,59.55
2018-12-15T02:56:24.915Z,59.45
2018-12-15T02:57:01.610Z,59.40
2018-12-15T02:57:38.455Z,59.33
2018-12-15T02:58:15.360Z,59.41
2018-12-15T02:58:52.412Z,59.61
2018-12-15T02:59:29.350Z,59.59
2018-12-15T03:00:06.314Z,59.84
2018-12-15T03:00:43.207Z,59.82
2018-12-15T03:01:20.143Z,59.89
2018-12-15T03:01:57.010Z,59.53
2018-12-15T03:02:33.952Z,59.51
2018-12-15T03:03:10.865Z,59.59
2018-12-15T03:03:48.302Z,59.03
2018-12-15T03:04:25.286Z,58.67
2018-12-15T03:05:01.998Z,58.75
2018-12-15T03:05:38.910Z,59.26
2018-12-15T03:06:15.806Z,59.58
2018-12-15T03:06:52.694Z,59.89
2018-12-15T03:07:29.628Z,59.29
2018-12-15T03:08:06.661Z,59.71
2018-12-15T03:08:43.485Z,59.61
2018-12-15T03:09:20.432Z,59.77
2018-12-15T03:09:57.390Z,60.09
2018-12-15T03:10:34.218Z,60.42
2018-12-15T03:11:11.132Z,60.07
2018-12-15T03:11:47.997Z,60.24
2018-12-15T03:12:24.904Z,60.58
2018-12-15T03:13:01.679Z,60.12
2018-12-15T03:13:38.499Z,60.70
2018-12-15T03:14:15.237Z,60.47
2018-12-15T03:14:52.121Z,61.33
2018-12-15T03:15:28.979Z,60.85
2018-12-15T03:16:05.894Z,60.66
2018-12-15T03:16:51.212Z,60.70
2018-12-15T03:17:28.011Z,59.88
2018-12-15T03:18:04.870Z,59.85
2018-12-15T03:18:42.676Z,59.91
2018-12-15T03:19:19.654Z,60.33
2018-12-15T03:19:58.321Z,59.77
2018-12-15T03:20:35.062Z,59.63
2018-12-15T03:21:11.950Z,59.69
2018-12-15T03:21:48.901Z,60.31
2018-12-15T03:22:25.817Z,60.28
2018-12-15T03:23:02.736Z,60.59
2018-12-15T03:23:39.676Z,60.29
2018-12-15T03:24:16.767Z,60.42
2018-12-15T03:24:53.486Z,60.80
2018-12-15T03:25:30.339Z,60.77
2018-12-15T03:26:07.279Z,60.77
2018-12-15T03:26:44.044Z,61.53
2018-12-15T03:27:20.980Z,61.11
2018-12-15T03:27:57.939Z,60.70
2018-12-15T03:28:34.786Z,61.07
2018-12-15T03:29:11.524Z,61.24
2018-12-15T03:29:48.312Z,61.41
2018-12-15T03:30:25.197Z,61.11
2018-12-15T03:31:02.323Z,60.74
2018-12-15T03:31:39.152Z,60.80
2018-12-15T03:32:16.034Z,61.08
2018-12-15T03:32:52.959Z,60.84
2018-12-15T03:33:29.921Z,60.92
2018-12-15T03:34:06.923Z,60.80
2018-12-15T03:34:43.736Z,59.76
2018-12-15T03:35:20.571Z,59.87
2018-12-15T03:35:57.428Z,60.28
2018-12-15T03:36:34.424Z,60.27
2018-12-15T03:37:11.259Z,60.52
2018-12-15T03:37:48.142Z,60.39
2018-12-15T03:38:25.014Z,60.71
2018-12-15T03:39:01.888Z,61.22
2018-12-15T03:39:38.736Z,61.40
2018-12-15T03:40:15.746Z,60.94
2018-12-15T03:40:52.821Z,60.24
2018-12-15T03:41:30.282Z,60.40
2018-12-15T03:42:07.708Z,59.98
2018-12-15T03:42:45.010Z,59.86
2018-12-15T03:43:22.015Z,59.78
2018-12-15T03:43:58.810Z,59.07
2018-12-15T03:44:35.753Z,59.33
2018-12-15T03:45:12.707Z,58.51
2018-12-15T03:45:49.656Z,59.18
2018-12-15T03:46:26.682Z,59.20
2018-12-15T03:47:03.609Z,59.23
2018-12-15T03:47:40.431Z,58.31
2018-12-15T03:48:17.368Z,59.21
2018-12-15T03:48:54.372Z,59.62
2018-12-15T03:49:31.217Z,58.58
2018-12-15T03:50:09.721Z,58.60
2018-12-15T03:50:46.614Z,59.61
2018-12-15T03:51:23.422Z,58.63
2018-12-15T03:52:00.217Z,58.73
2018-12-15T03:52:37.096Z,59.70
2018-12-15T03:53:13.988Z,59.17
2018-12-15T03:53:51.004Z,58.74
2018-12-15T03:54:27.849Z,58.54
2018-12-15T03:55:04.762Z,57.48
2018-12-15T03:55:41.571Z,56.94
2018-12-15T03:56:18.467Z,57.87
2018-12-15T03:56:55.261Z,57.73
2018-12-15T03:57:32.119Z,57.68
2018-12-15T03:58:08.968Z,58.42
2018-12-15T03:58:45.898Z,58.49
2018-12-15T03:59:23.538Z,58.83
2018-12-15T04:00:00.533Z,60.10
2018-12-15T04:00:37.663Z,59.64
2018-12-15T04:01:14.636Z,59.76
2018-12-15T04:01:51.457Z,59.77
2018-12-15T04:02:28.391Z,59.82
2018-12-15T04:03:05.425Z,59.98
2018-12-15T04:03:42.147Z,60.09
2018-12-15T04:04:20.089Z,59.92
2018-12-15T04:04:57.029Z,59.81
2018-12-15T04:05:33.968Z,59.91
2018-12-15T04:06:10.896Z,60.30
2018-12-15T04:06:47.644Z,60.43
2018-12-15T04:07:24.495Z,60.10
2018-12-15T04:08:01.342Z,59.91
2018-12-15T04:08:39.279Z,60.18
2018-12-15T04:09:17.090Z,59.48
2018-12-15T04:09:53.932Z,60.25
2018-12-15T04:10:30.745Z,60.31
2018-12-15T04:11:07.621Z,59.40
2018-12-15T04:11:44.621Z,59.38
2018-12-15T04:12:21.486Z,58.79
2018-12-15T04:12:58.640Z,59.54
2018-12-15T04:13:35.353Z,58.92
2018-12-15T04:17:28.923Z,59.48
2018-12-15T04:18:05.717Z,59.30
2018-12-15T04:18:42.541Z,59.59
2018-12-15T04:19:19.328Z,58.85
2018-12-15T04:19:56.135Z,58.30
2018-12-15T04:20:33.140Z,58.65
2018-12-15T04:21:10.016Z,58.40
2018-12-15T04:21:47.022Z,58.19
2018-12-15T04:22:27.124Z,58.07
2018-12-15T04:23:04.047Z,57.72
2018-12-15T04:23:41.194Z,58.34
2018-12-15T04:24:18.294Z,58.46
2018-12-15T04:24:55.364Z,58.03
2018-12-15T04:25:32.420Z,58.17
2018-12-15T04:26:09.615Z,57.29
2018-12-15T04:26:46.833Z,58.24
2018-12-15T04:27:23.941Z,57.88
2018-12-15T04:28:00.865Z,57.43
2018-12-15T04:28:37.896Z,57.50
2018-12-15T04:29:14.980Z,57.67
2018-12-15T04:29:52.043Z,57.75
2018-12-15T04:30:28.874Z,57.13
2018-12-15T04:31:06.799Z,56.64
2018-12-15T04:31:43.861Z,57.53
2018-12-15T04:32:20.900Z,57.53
2018-12-15T04:32:57.866Z,56.28
2018-12-15T04:33:34.696Z,56.42
2018-12-15T04:34:11.505Z,56.97
2018-12-15T04:34:48.537Z,57.00
2018-12-15T04:35:25.479Z,57.45
2018-12-15T04:36:03.029Z,57.28
2018-12-15T04:36:39.951Z,56.38
2018-12-15T04:37:16.911Z,56.43
2018-12-15T04:37:54.044Z,55.35
2018-12-15T04:38:30.940Z,55.07
2018-12-15T04:39:08.964Z,54.66
2018-12-15T04:39:45.797Z,55.29
2018-12-15T04:40:22.790Z,55.10
2018-12-15T04:40:59.706Z,55.26
2018-12-15T04:41:37.753Z,55.29
2018-12-15T04:42:14.820Z,54.76
2018-12-15T04:42:51.699Z,55.71
2018-12-15T04:43:28.593Z,55.95
2018-12-15T04:44:05.405Z,56.30
2018-12-15T04:44:42.184Z,56.37
2018-12-15T04:45:19.099Z,56.40
2018-12-15T04:45:56.128Z,56.67
2018-12-15T04:46:33.045Z,56.75
2018-12-15T04:47:10.225Z,55.54
2018-12-15T04:47:47.338Z,56.10
2018-12-15T04:48:24.344Z,56.52
2018-12-15T04:49:01.255Z,55.24
2018-12-15T04:49:38.190Z,55.90
2018-12-15T04:50:15.161Z,55.89
2018-12-15T04:50:52.077Z,56.18
2018-12-15T04:51:29.003Z,55.93
2018-12-15T04:52:05.969Z,55.29
2018-12-15T04:52:42.892Z,54.90
2018-12-15T04:53:19.960Z,56.26
2018-12-15T04:53:57.014Z,56.18
2018-12-15T04:54:33.955Z,55.27
2018-12-15T04:55:10.806Z,55.87
2018-12-15T04:55:47.739Z,55.38
2018-12-15T04:56:24.655Z,56.30
2018-12-15T04:57:01.611Z,55.95
2018-12-15T04:57:38.500Z,55.58
2018-12-15T04:58:16.235Z,55.63
2018-12-15T04:58:53.118Z,56.43
2018-12-15T04:59:30.054Z,56.26
2018-12-15T05:00:07.084Z,55.99
2018-12-15T05:00:43.920Z,56.49
2018-12-15T05:01:20.751Z,56.11
2018-12-15T05:01:57.612Z,56.98
2018-12-15T05:02:34.472Z,57.18
2018-12-15T05:03:11.431Z,57.03
2018-12-15T05:03:48.337Z,57.50
2018-12-15T05:04:25.408Z,56.36
2018-12-15T05:05:02.699Z,56.60
2018-12-15T05:05:39.736Z,57.22
2018-12-15T05:06:16.694Z,56.60
2018-12-15T05:06:54.016Z,57.59
2018-12-15T05:07:31.166Z,57.27
2018-12-15T05:08:08.456Z,58.02
2018-12-15T05:08:45.745Z,58.02
2018-12-15T05:09:22.673Z,57.65
2018-12-15T05:09:59.532Z,57.58
2018-12-15T05:10:36.841Z,57.86
2018-12-15T05:11:13.764Z,58.42
2018-12-15T05:11:50.642Z,58.67
2018-12-15T05:12:27.550Z,58.41
2018-12-15T05:13:04.411Z,59.13
2018-12-15T05:13:41.609Z,58.73
2018-12-15T05:14:18.523Z,59.50
2018-12-15T05:14:55.425Z,59.15
2018-12-15T05:15:32.618Z,58.71
2018-12-15T05:16:09.734Z,59.15
2018-12-15T05:16:46.567Z,59.07
2018-12-15T05:17:23.779Z,59.27
2018-12-15T05:18:01.176Z,58.82
2018-12-15T05:18:38.136Z,58.72
2018-12-15T05:19:15.186Z,58.91
2018-12-15T05:19:51.972Z,59.30
2018-12-15T05:20:29.020Z,59.16
2018-12-15T05:21:06.452Z,60.00
2018-12-15T05:21:43.454Z,60.00
2018-12-15T05:22:20.483Z,60.05
2018-12-15T05:22:57.341Z,59.73
2018-12-15T05:23:34.135Z,59.92
2018-12-15T05:24:11.141Z,59.42
2018-12-15T05:24:48.212Z,59.59
2018-12-15T05:25:24.988Z,59.45
2018-12-15T05:26:01.957Z,59.98
2018-12-15T05:26:38.839Z,59.42
2018-12-15T05:27:15.850Z,60.16
2018-12-15T05:27:52.798Z,59.49
2018-12-15T05:28:29.636Z,59.77
2018-12-15T05:29:07.570Z,60.36
2018-12-15T05:29:44.472Z,60.42
2018-12-15T05:30:21.724Z,60.35
2018-12-15T05:30:58.704Z,60.60
2018-12-15T05:31:35.521Z,60.92
2018-12-15T05:32:12.380Z,61.27
2018-12-15T05:32:49.222Z,61.39
2018-12-15T05:33:26.127Z,61.24
2018-12-15T05:34:03.079Z,60.51
2018-12-15T05:34:39.978Z,61.00
2018-12-15T05:35:17.154Z,60.43
2018-12-15T05:35:53.976Z,60.98
2018-12-15T05:36:30.957Z,60.76
2018-12-15T05:37:07.982Z,61.03
2018-12-15T05:37:45.100Z,60.92
2018-12-15T05:38:21.904Z,60.65
2018-12-15T05:38:58.779Z,60.79
2018-12-15T05:39:36.119Z,61.74
2018-12-15T05:40:13.121Z,61.29
2018-12-15T05:40:50.022Z,60.82
2018-12-15T05:41:26.957Z,61.39
2018-12-15T05:42:04.806Z,60.72
2018-12-15T05:42:41.692Z,61.18
2018-12-15T05:43:18.577Z,61.77
2018-12-15T05:43:55.486Z,61.80
2018-12-15T05:44:32.322Z,61.22
2018-12-15T05:45:09.824Z,61.24
2018-12-15T05:45:46.621Z,60.69
2018-12-15T05:46:23.638Z,60.35
2018-12-15T05:47:00.333Z,60.81
2018-12-15T05:47:37.229Z,61.34
2018-12-15T05:48:14.275Z,61.67
2018-12-15T05:48:51.095Z,61.14
2018-12-15T05:49:28.048Z,61.66
2018-12-15T05:50:05.040Z,61.04
2018-12-15T05:50:42.214Z,61.64
2018-12-15T05:51:19.522Z,61.60
2018-12-15T05:51:56.520Z,61.62
2018-12-15T05:52:33.487Z,61.02
2018-12-15T05:53:10.348Z,61.26
2018-12-15T05:53:47.530Z,61.41
2018-12-15T05:54:24.569Z,61.10
2018-12-15T05:55:01.471Z,61.42
2018-12-15T05:55:38.360Z,61.70
2018-12-15T05:56:15.255Z,61.33
2018-12-15T05:56:52.749Z,61.80
2018-12-15T05:57:29.616Z,61.64
2018-12-15T05:58:06.431Z,61.94
2018-12-15T05:58:43.286Z,61.43
2018-12-15T05:59:20.235Z,62.09
2018-12-15T05:59:57.269Z,62.09
2018-12-15T06:00:34.480Z,61.81
2018-12-15T06:01:11.831Z,61.81
2018-12-15T06:01:48.788Z,61.96
2018-12-15T06:02:26.551Z,62.01
2018-12-15T06:03:03.889Z,61.47
2018-12-15T06:03:42.672Z,60.96
2018-12-15T06:04:19.701Z,61.39
2018-12-15T06:04:57.149Z,61.26
2018-12-15T06:05:34.084Z,61.51
2018-12-15T06:06:11.209Z,61.45
2018-12-15T06:06:48.115Z,60.53
2018-12-15T06:07:24.936Z,60.76
2018-12-15T06:08:01.768Z,60.78
2018-12-15T06:08:38.532Z,60.54
2018-12-15T06:09:15.279Z,60.66
2018-12-15T06:09:52.149Z,61.14
2018-12-15T06:10:29.012Z,61.16
2018-12-15T06:11:05.860Z,61.21
2018-12-15T06:12:07.226Z,60.60
2018-12-15T06:12:46.765Z,59.97
2018-12-15T06:13:24.595Z,59.77
2018-12-15T06:14:01.468Z,59.56
2018-12-15T06:14:38.602Z,58.60
2018-12-15T06:15:15.765Z,59.55
2018-12-15T06:15:52.596Z,59.84
2018-12-15T06:16:29.628Z,59.59
2018-12-15T06:17:19.263Z,59.21
2018-12-15T06:18:06.038Z,58.76
2018-12-15T06:18:45.070Z,59.32
2018-12-15T06:19:26.154Z,59.31
2018-12-15T06:20:11.463Z,59.04
2018-12-15T06:21:00.727Z,58.63
2018-12-15T06:21:42.765Z,59.62
2018-12-15T06:22:26.698Z,59.41
2018-12-15T06:23:07.723Z,58.68
2018-12-15T06:23:50.269Z,59.04
2018-12-15T06:24:34.122Z,59.16
2018-12-15T06:25:17.043Z,59.43
2018-12-15T06:26:12.267Z,58.94
2018-12-15T06:26:59.373Z,58.88
2018-12-15T06:27:44.760Z,59.33
2018-12-15T06:28:21.919Z,59.55
2018-12-15T06:29:08.549Z,58.65
2018-12-15T06:29:47.191Z,59.61
2018-12-15T06:30:34.532Z,59.24
2018-12-15T06:31:21.796Z,59.99
2018-12-15T06:32:00.784Z,60.62
2018-12-15T06:32:38.387Z,60.93
2018-12-15T06:33:18.328Z,61.09
2018-12-15T06:33:55.543Z,61.27
2018-12-15T06:34:44.343Z,61.33
2018-12-15T06:35:30.179Z,60.99
2018-12-15T06:36:08.439Z,61.45
2018-12-15T06:36:52.995Z,61.24
2018-12-15T06:37:37.653Z,60.98
2018-12-15T06:38:15.339Z,60.98
2018-12-15T06:38:58.205Z,61.14
2018-12-15T06:39:36.971Z,60.59
2018-12-15T06:40:14.311Z,61.14
2018-12-15T06:40:51.517Z,61.28
2018-12-15T06:41:40.291Z,61.44
2018-12-15T06:42:18.579Z,61.70
2018-12-15T06:42:59.513Z,62.34
2018-12-15T06:43:38.353Z,62.29
2018-12-15T06:44:16.449Z,61.71
2018-12-15T06:44:56.581Z,61.33
2018-12-15T06:45:36.483Z,61.36
2018-12-15T06:46:25.858Z,61.33
2018-12-15T06:47:10.021Z,60.97
2018-12-15T06:48:00.701Z,61.34
2018-12-15T06:49:49.541Z,61.76
2018-12-15T06:50:27.936Z,61.77
2018-12-15T06:51:05.005Z,62.19
2018-12-15T06:51:42.335Z,62.30
2018-12-15T06:52:21.262Z,62.20
2018-12-15T06:53:05.047Z,62.35
2018-12-15T06:53:45.024Z,62.65
2018-12-15T06:54:22.824Z,62.72
2018-12-15T06:55:01.426Z,62.90
2018-12-15T06:55:41.440Z,63.00
2018-12-15T06:56:30.423Z,62.84
2018-12-15T06:57:08.985Z,63.03
2018-12-15T06:57:52.478Z,63.04
2018-12-15T06:58:30.831Z,63.35
2018-12-15T07:03:18.087Z,64.72
2018-12-15T07:03:59.129Z,64.85
2018-12-15T07:04:46.288Z,65.19
2018-12-15T07:18:44.772Z,72.50
2018-12-15T07:19:30.033Z,73.22
2018-12-15T14:49:24.950Z,88.75
2018-12-15T14:50:54.617Z,89.47
2018-12-15T14:51:33.632Z,88.92
2018-12-15T14:52:13.098Z,90.04
2018-12-15T14:52:50.856Z,89.77
2018-12-15T14:53:28.626Z,89.87
2018-12-15T14:54:05.928Z,89.85
2018-12-15T14:54:43.713Z,90.12
2018-12-15T14:55:21.321Z,89.61
2018-12-15T14:55:59.001Z,89.13
2018-12-15T14:56:36.503Z,89.83
2018-12-15T14:57:16.419Z,88.86
2018-12-15T14:57:53.998Z,90.04
2018-12-15T14:58:31.997Z,88.49
2018-12-15T14:59:09.286Z,88.21
2018-12-15T14:59:46.302Z,88.81
2018-12-15T15:00:23.936Z,89.02
2018-12-15T15:01:01.089Z,88.46
2018-12-15T15:01:38.373Z,89.24
2018-12-15T15:02:15.528Z,88.40
2018-12-15T15:02:53.408Z,88.26
2018-12-15T15:03:30.385Z,89.43
2018-12-15T15:04:07.734Z,89.15
2018-12-15T15:04:44.898Z,89.34
2018-12-15T15:05:21.957Z,88.14
2018-12-15T15:05:58.854Z,89.10
2018-12-15T15:06:36.076Z,88.78
2018-12-15T15:07:13.321Z,88.59
2018-12-15T15:07:50.752Z,89.16
2018-12-15T15:08:28.292Z,89.34
2018-12-15T15:09:05.713Z,89.40
2018-12-15T15:09:43.238Z,88.70
2018-12-15T15:10:22.668Z,89.14
2018-12-15T15:10:59.770Z,89.13
2018-12-15T15:11:41.342Z,88.63
2018-12-15T15:12:33.055Z,88.39
2018-12-15T15:13:10.304Z,88.30
2018-12-15T15:13:47.285Z,88.12
2018-12-15T15:14:24.159Z,88.77
2018-12-15T15:15:01.124Z,89.11
2018-12-15T15:15:37.979Z,88.55
2018-12-15T15:16:14.883Z,88.82
2018-12-15T15:16:51.765Z,88.67
2018-12-15T15:17:29.872Z,89.46
2018-12-15T15:18:07.676Z,88.32
2018-12-15T15:18:44.612Z,88.57
2018-12-15T15:19:26.081Z,88.36
2018-12-15T15:20:03.105Z,88.35
2018-12-15T15:20:42.134Z,88.58
2018-12-15T15:21:18.845Z,88.93
2018-12-15T15:21:59.182Z,89.29
2018-12-15T15:22:36.974Z,88.43
2018-12-15T15:23:15.196Z,89.40
2018-12-15T15:23:53.796Z,89.06
2018-12-15T15:24:35.428Z,88.46
2018-12-15T15:25:15.966Z,88.15
2018-12-15T15:25:52.949Z,88.15
2018-12-15T15:26:29.805Z,89.14
2018-12-15T15:27:06.702Z,89.20
2018-12-15T15:27:43.841Z,88.67
2018-12-15T15:28:20.655Z,88.45
2018-12-15T15:28:57.585Z,89.19
2018-12-15T15:29:34.465Z,88.85
2018-12-15T15:30:12.244Z,89.18
2018-12-15T15:30:50.302Z,89.00
2018-12-15T15:31:27.975Z,88.46
2018-12-15T15:32:05.165Z,89.00
2018-12-15T15:32:43.207Z,88.31
2018-12-15T15:33:20.079Z,89.23
2018-12-15T15:33:57.117Z,89.61
2018-12-15T15:34:33.969Z,89.37
2018-12-15T15:35:14.696Z,89.18
2018-12-15T15:35:52.831Z,88.29
2018-12-15T15:36:29.796Z,89.61
2018-12-15T15:37:06.824Z,88.64
2018-12-15T15:37:44.665Z,88.73
2018-12-15T15:38:22.869Z,89.34
2018-12-15T15:38:59.826Z,89.56
2018-12-15T15:39:37.832Z,88.73
2018-12-15T15:40:15.945Z,89.57
2018-12-15T15:40:53.008Z,89.40
2018-12-15T15:41:30.241Z,89.76
2018-12-15T15:42:07.056Z,88.61
2018-12-15T15:42:43.968Z,89.69
2018-12-15T15:43:21.638Z,88.80
2018-12-15T15:43:59.752Z,89.04
2018-12-15T15:44:36.603Z,88.36
2018-12-15T15:45:13.435Z,89.45
2018-12-15T15:45:50.460Z,88.86
2018-12-15T15:46:27.291Z,88.34
2018-12-15T15:47:04.120Z,88.82
2018-12-15T15:47:40.995Z,88.37
2018-12-15T15:48:18.124Z,88.85
2018-12-15T15:48:55.024Z,89.42
2018-12-15T15:49:31.990Z,88.67
2018-12-15T15:50:09.919Z,89.53
2018-12-15T15:50:46.801Z,89.41
2018-12-15T15:51:24.258Z,89.12
2018-12-15T15:52:01.293Z,88.48
2018-12-15T15:52:38.227Z,89.21
2018-12-15T15:53:15.108Z,88.78
2018-12-15T15:53:51.938Z,88.64
2018-12-15T15:54:28.736Z,88.90
2018-12-15T15:55:05.536Z,88.52
2018-12-15T15:55:42.346Z,89.01